sensor_id;sensor_type;location;lat;lon;timestamp;temperature;humidity
24448;DHT22;13348;50.984;5.822;2023-02-16T00:00:48;7.20;99.90
24448;DHT22;13348;50.984;5.822;2023-02-16T00:03:16;7.10;99.90
24448;DHT22;13348;50.984;5.822;2023-02-16T00:05:43;7.10;99.90
24448;DHT22;13348;50.984;5.822;2023-02-16T00:08:10;7.10;99.90
24448;DHT22;13348;50.984;5.822;2023-02-16T00:10:37;7.00;99.90
24448;DHT22;13348;50.984;5.822;2023-02-16T00:13:12;6.90;99.90
24448;DHT22;13348;50.984;5.822;2023-02-16T00:15:59;7.00;99.90
24448;DHT22;13348;50.984;5.822;2023-02-16T00:18:26;6.90;99.90
24448;DHT22;13348;50.984;5.822;2023-02-16T00:20:53;6.80;99.90
24448;DHT22;13348;50.984;5.822;2023-02-16T00:23:20;6.80;99.90
24448;DHT22;13348;50.984;5.822;2023-02-16T00:25:47;6.90;99.90
24448;DHT22;13348;50.984;5.822;2023-02-16T00:28:15;6.90;99.90
24448;DHT22;13348;50.984;5.822;2023-02-16T00:30:43;6.70;99.90
24448;DHT22;13348;50.984;5.822;2023-02-16T00:33:14;6.80;99.90
24448;DHT22;13348;50.984;5.822;2023-02-16T00:35:41;7.00;99.90
24448;DHT22;13348;50.984;5.822;2023-02-16T00:38:09;6.90;99.90
24448;DHT22;13348;50.984;5.822;2023-02-16T00:40:36;6.90;99.90
24448;DHT22;13348;50.984;5.822;2023-02-16T00:43:03;6.70;99.90
24448;DHT22;13348;50.984;5.822;2023-02-16T00:45:30;6.80;99.90
24448;DHT22;13348;50.984;5.822;2023-02-16T00:47:59;6.60;99.90
24448;DHT22;13348;50.984;5.822;2023-02-16T00:50:28;6.50;99.90
24448;DHT22;13348;50.984;5.822;2023-02-16T00:52:56;6.50;99.90
24448;DHT22;13348;50.984;5.822;2023-02-16T00:55:24;6.50;99.90
24448;DHT22;13348;50.984;5.822;2023-02-16T00:57:52;6.50;99.90
24448;DHT22;13348;50.984;5.822;2023-02-16T01:00:21;6.50;99.90
24448;DHT22;13348;50.984;5.822;2023-02-16T01:02:49;6.50;99.90
24448;DHT22;13348;50.984;5.822;2023-02-16T01:05:17;6.50;99.90
24448;DHT22;13348;50.984;5.822;2023-02-16T01:07:45;6.50;99.90
24448;DHT22;13348;50.984;5.822;2023-02-16T01:10:41;6.30;99.90
24448;DHT22;13348;50.984;5.822;2023-02-16T01:13:31;6.40;99.90
24448;DHT22;13348;50.984;5.822;2023-02-16T01:15:58;6.30;99.90
24448;DHT22;13348;50.984;5.822;2023-02-16T01:18:25;6.40;99.90
24448;DHT22;13348;50.984;5.822;2023-02-16T01:20:52;6.40;99.90
24448;DHT22;13348;50.984;5.822;2023-02-16T01:23:20;6.50;99.90
24448;DHT22;13348;50.984;5.822;2023-02-16T01:25:47;6.50;99.90
24448;DHT22;13348;50.984;5.822;2023-02-16T01:28:16;6.50;99.90
24448;DHT22;13348;50.984;5.822;2023-02-16T01:30:43;6.60;99.90
24448;DHT22;13348;50.984;5.822;2023-02-16T01:33:10;6.60;99.90
24448;DHT22;13348;50.984;5.822;2023-02-16T01:35:37;6.50;99.90
24448;DHT22;13348;50.984;5.822;2023-02-16T01:38:04;6.50;99.90
24448;DHT22;13348;50.984;5.822;2023-02-16T01:40:37;6.50;99.90
24448;DHT22;13348;50.984;5.822;2023-02-16T01:43:09;6.60;99.90
24448;DHT22;13348;50.984;5.822;2023-02-16T01:45:39;6.80;99.90
24448;DHT22;13348;50.984;5.822;2023-02-16T01:48:11;6.70;99.90
24448;DHT22;13348;50.984;5.822;2023-02-16T01:50:41;6.50;99.90
24448;DHT22;13348;50.984;5.822;2023-02-16T01:53:12;6.50;99.90
24448;DHT22;13348;50.984;5.822;2023-02-16T01:55:43;6.60;99.90
24448;DHT22;13348;50.984;5.822;2023-02-16T01:58:12;6.50;99.90
24448;DHT22;13348;50.984;5.822;2023-02-16T02:03:26;6.60;99.90
24448;DHT22;13348;50.984;5.822;2023-02-16T02:06:11;6.80;99.90
24448;DHT22;13348;50.984;5.822;2023-02-16T02:08:40;6.70;99.90
24448;DHT22;13348;50.984;5.822;2023-02-16T02:11:10;6.90;99.90
24448;DHT22;13348;50.984;5.822;2023-02-16T02:13:38;6.80;99.90
24448;DHT22;13348;50.984;5.822;2023-02-16T02:16:06;6.60;99.90
24448;DHT22;13348;50.984;5.822;2023-02-16T02:18:33;6.70;99.90
24448;DHT22;13348;50.984;5.822;2023-02-16T02:21:08;6.70;99.90
24448;DHT22;13348;50.984;5.822;2023-02-16T02:27:00;6.50;99.90
24448;DHT22;13348;50.984;5.822;2023-02-16T02:32:16;6.70;99.90
24448;DHT22;13348;50.984;5.822;2023-02-16T02:34:47;6.60;99.90
24448;DHT22;13348;50.984;5.822;2023-02-16T02:37:25;6.60;99.90
24448;DHT22;13348;50.984;5.822;2023-02-16T02:39:57;6.50;99.90
24448;DHT22;13348;50.984;5.822;2023-02-16T02:42:28;6.40;99.90
24448;DHT22;13348;50.984;5.822;2023-02-16T02:44:58;6.40;99.90
24448;DHT22;13348;50.984;5.822;2023-02-16T02:47:35;6.30;99.90
24448;DHT22;13348;50.984;5.822;2023-02-16T02:52:44;6.40;99.90
24448;DHT22;13348;50.984;5.822;2023-02-16T02:55:11;6.40;99.90
24448;DHT22;13348;50.984;5.822;2023-02-16T02:57:57;6.40;99.90
24448;DHT22;13348;50.984;5.822;2023-02-16T03:00:51;6.40;99.90
24448;DHT22;13348;50.984;5.822;2023-02-16T03:03:19;6.50;99.90
24448;DHT22;13348;50.984;5.822;2023-02-16T03:05:50;6.50;99.90
24448;DHT22;13348;50.984;5.822;2023-02-16T03:08:21;6.50;99.90
24448;DHT22;13348;50.984;5.822;2023-02-16T03:10:49;6.40;99.90
24448;DHT22;13348;50.984;5.822;2023-02-16T03:13:36;6.50;99.90
24448;DHT22;13348;50.984;5.822;2023-02-16T03:16:07;6.60;99.90
24448;DHT22;13348;50.984;5.822;2023-02-16T03:18:35;6.60;99.90
24448;DHT22;13348;50.984;5.822;2023-02-16T03:21:20;6.60;99.90
24448;DHT22;13348;50.984;5.822;2023-02-16T03:24:06;6.60;99.90
24448;DHT22;13348;50.984;5.822;2023-02-16T03:26:52;6.50;99.90
24448;DHT22;13348;50.984;5.822;2023-02-16T03:29:38;6.50;99.90
24448;DHT22;13348;50.984;5.822;2023-02-16T03:32:05;6.60;99.90
24448;DHT22;13348;50.984;5.822;2023-02-16T03:34:32;6.50;99.90
24448;DHT22;13348;50.984;5.822;2023-02-16T03:37:01;6.40;99.90
24448;DHT22;13348;50.984;5.822;2023-02-16T03:39:29;6.50;99.90
24448;DHT22;13348;50.984;5.822;2023-02-16T03:41:56;6.50;99.90
24448;DHT22;13348;50.984;5.822;2023-02-16T03:44:23;6.30;99.90
24448;DHT22;13348;50.984;5.822;2023-02-16T03:46:52;6.40;99.90
24448;DHT22;13348;50.984;5.822;2023-02-16T03:49:19;6.50;99.90
24448;DHT22;13348;50.984;5.822;2023-02-16T03:51:46;6.40;99.90
24448;DHT22;13348;50.984;5.822;2023-02-16T03:54:13;6.30;99.90
24448;DHT22;13348;50.984;5.822;2023-02-16T03:56:40;6.30;99.90
24448;DHT22;13348;50.984;5.822;2023-02-16T03:59:07;6.40;99.90
24448;DHT22;13348;50.984;5.822;2023-02-16T04:01:33;6.30;99.90
24448;DHT22;13348;50.984;5.822;2023-02-16T04:04:02;6.30;99.90
24448;DHT22;13348;50.984;5.822;2023-02-16T04:06:29;6.40;99.90
24448;DHT22;13348;50.984;5.822;2023-02-16T04:08:55;6.30;99.90
24448;DHT22;13348;50.984;5.822;2023-02-16T04:11:22;6.20;99.90
24448;DHT22;13348;50.984;5.822;2023-02-16T04:14:07;6.20;99.90
24448;DHT22;13348;50.984;5.822;2023-02-16T04:16:34;6.30;99.90
24448;DHT22;13348;50.984;5.822;2023-02-16T04:19:02;6.40;99.90
24448;DHT22;13348;50.984;5.822;2023-02-16T04:21:30;6.30;99.90
24448;DHT22;13348;50.984;5.822;2023-02-16T04:23:57;6.30;99.90
24448;DHT22;13348;50.984;5.822;2023-02-16T04:26:24;6.40;99.90
24448;DHT22;13348;50.984;5.822;2023-02-16T04:28:51;6.30;99.90
24448;DHT22;13348;50.984;5.822;2023-02-16T04:31:18;6.40;99.90
24448;DHT22;13348;50.984;5.822;2023-02-16T04:33:45;6.40;99.90
24448;DHT22;13348;50.984;5.822;2023-02-16T04:36:13;6.50;99.90
24448;DHT22;13348;50.984;5.822;2023-02-16T04:38:40;6.50;99.90
24448;DHT22;13348;50.984;5.822;2023-02-16T04:41:07;6.40;99.90
24448;DHT22;13348;50.984;5.822;2023-02-16T04:43:34;6.50;99.90
24448;DHT22;13348;50.984;5.822;2023-02-16T04:46:01;6.70;99.90
24448;DHT22;13348;50.984;5.822;2023-02-16T04:48:28;6.70;99.90
24448;DHT22;13348;50.984;5.822;2023-02-16T04:50:55;6.70;99.90
24448;DHT22;13348;50.984;5.822;2023-02-16T04:53:23;6.70;99.90
24448;DHT22;13348;50.984;5.822;2023-02-16T04:55:50;6.70;99.90
24448;DHT22;13348;50.984;5.822;2023-02-16T04:58:17;6.60;99.90
24448;DHT22;13348;50.984;5.822;2023-02-16T05:00:44;6.60;99.90
24448;DHT22;13348;50.984;5.822;2023-02-16T05:03:11;6.60;99.90
24448;DHT22;13348;50.984;5.822;2023-02-16T05:05:38;6.80;99.90
24448;DHT22;13348;50.984;5.822;2023-02-16T05:08:05;6.70;99.90
24448;DHT22;13348;50.984;5.822;2023-02-16T05:10:33;6.80;99.90
24448;DHT22;13348;50.984;5.822;2023-02-16T05:13:00;6.90;99.90
24448;DHT22;13348;50.984;5.822;2023-02-16T05:15:44;6.90;99.90
24448;DHT22;13348;50.984;5.822;2023-02-16T05:18:11;6.90;99.90
24448;DHT22;13348;50.984;5.822;2023-02-16T05:20:38;7.00;99.90
24448;DHT22;13348;50.984;5.822;2023-02-16T05:23:23;6.90;99.90
24448;DHT22;13348;50.984;5.822;2023-02-16T05:25:51;7.00;99.90
24448;DHT22;13348;50.984;5.822;2023-02-16T05:28:18;7.00;99.90
24448;DHT22;13348;50.984;5.822;2023-02-16T05:30:45;7.10;99.90
24448;DHT22;13348;50.984;5.822;2023-02-16T05:33:12;7.00;99.90
24448;DHT22;13348;50.984;5.822;2023-02-16T05:35:39;7.00;99.90
24448;DHT22;13348;50.984;5.822;2023-02-16T05:38:05;7.10;99.90
24448;DHT22;13348;50.984;5.822;2023-02-16T05:40:32;7.10;99.90
24448;DHT22;13348;50.984;5.822;2023-02-16T05:43:01;7.10;99.90
24448;DHT22;13348;50.984;5.822;2023-02-16T05:45:28;7.10;99.90
24448;DHT22;13348;50.984;5.822;2023-02-16T05:47:55;7.00;99.90
24448;DHT22;13348;50.984;5.822;2023-02-16T05:50:22;7.00;99.90
24448;DHT22;13348;50.984;5.822;2023-02-16T05:52:48;7.10;99.90
24448;DHT22;13348;50.984;5.822;2023-02-16T05:55:15;7.00;99.90
24448;DHT22;13348;50.984;5.822;2023-02-16T05:57:42;7.10;99.90
24448;DHT22;13348;50.984;5.822;2023-02-16T06:00:11;7.20;99.90
24448;DHT22;13348;50.984;5.822;2023-02-16T06:02:39;7.20;99.90
24448;DHT22;13348;50.984;5.822;2023-02-16T06:05:06;7.20;99.90
24448;DHT22;13348;50.984;5.822;2023-02-16T06:07:33;7.20;99.90
24448;DHT22;13348;50.984;5.822;2023-02-16T06:10:00;7.20;99.90
24448;DHT22;13348;50.984;5.822;2023-02-16T06:12:27;7.20;99.90
24448;DHT22;13348;50.984;5.822;2023-02-16T06:14:56;7.10;99.90
24448;DHT22;13348;50.984;5.822;2023-02-16T06:17:24;7.20;99.90
24448;DHT22;13348;50.984;5.822;2023-02-16T06:19:52;7.10;99.90
24448;DHT22;13348;50.984;5.822;2023-02-16T06:22:19;7.10;99.90
24448;DHT22;13348;50.984;5.822;2023-02-16T06:24:46;7.10;99.90
24448;DHT22;13348;50.984;5.822;2023-02-16T06:27:13;7.00;99.90
24448;DHT22;13348;50.984;5.822;2023-02-16T06:29:40;7.00;99.90
24448;DHT22;13348;50.984;5.822;2023-02-16T06:32:07;7.00;99.90
24448;DHT22;13348;50.984;5.822;2023-02-16T06:34:35;7.10;99.90
24448;DHT22;13348;50.984;5.822;2023-02-16T06:37:02;7.20;99.90
24448;DHT22;13348;50.984;5.822;2023-02-16T06:39:29;7.10;99.90
24448;DHT22;13348;50.984;5.822;2023-02-16T06:41:56;7.10;99.90
24448;DHT22;13348;50.984;5.822;2023-02-16T06:44:23;7.00;99.90
24448;DHT22;13348;50.984;5.822;2023-02-16T06:46:50;7.00;99.90
24448;DHT22;13348;50.984;5.822;2023-02-16T06:49:17;7.10;99.90
24448;DHT22;13348;50.984;5.822;2023-02-16T06:51:46;7.10;99.90
24448;DHT22;13348;50.984;5.822;2023-02-16T06:54:14;7.20;99.90
24448;DHT22;13348;50.984;5.822;2023-02-16T06:56:41;7.20;99.90
24448;DHT22;13348;50.984;5.822;2023-02-16T06:59:09;7.30;99.90
24448;DHT22;13348;50.984;5.822;2023-02-16T07:01:36;7.30;99.90
24448;DHT22;13348;50.984;5.822;2023-02-16T07:04:03;7.30;99.90
24448;DHT22;13348;50.984;5.822;2023-02-16T07:06:30;7.30;99.90
24448;DHT22;13348;50.984;5.822;2023-02-16T07:08:58;7.50;99.90
24448;DHT22;13348;50.984;5.822;2023-02-16T07:11:25;7.40;99.90
24448;DHT22;13348;50.984;5.822;2023-02-16T07:13:52;7.50;99.90
24448;DHT22;13348;50.984;5.822;2023-02-16T07:16:19;7.60;99.90
24448;DHT22;13348;50.984;5.822;2023-02-16T07:18:46;7.60;99.90
24448;DHT22;13348;50.984;5.822;2023-02-16T07:21:13;7.60;99.90
24448;DHT22;13348;50.984;5.822;2023-02-16T07:23:41;7.60;99.90
24448;DHT22;13348;50.984;5.822;2023-02-16T07:26:09;7.70;99.90
24448;DHT22;13348;50.984;5.822;2023-02-16T07:28:36;7.60;99.90
24448;DHT22;13348;50.984;5.822;2023-02-16T07:31:07;7.70;99.90
24448;DHT22;13348;50.984;5.822;2023-02-16T07:33:34;7.80;99.90
24448;DHT22;13348;50.984;5.822;2023-02-16T07:36:01;7.80;99.90
24448;DHT22;13348;50.984;5.822;2023-02-16T07:38:28;8.00;99.90
24448;DHT22;13348;50.984;5.822;2023-02-16T07:40:55;8.10;99.90
24448;DHT22;13348;50.984;5.822;2023-02-16T07:43:23;8.10;99.90
24448;DHT22;13348;50.984;5.822;2023-02-16T07:45:50;8.20;99.90
24448;DHT22;13348;50.984;5.822;2023-02-16T07:48:17;8.10;99.90
24448;DHT22;13348;50.984;5.822;2023-02-16T07:50:44;8.00;99.90
24448;DHT22;13348;50.984;5.822;2023-02-16T07:53:11;8.00;99.90
24448;DHT22;13348;50.984;5.822;2023-02-16T07:55:38;8.00;99.90
24448;DHT22;13348;50.984;5.822;2023-02-16T07:58:06;8.00;99.90
24448;DHT22;13348;50.984;5.822;2023-02-16T08:00:34;8.10;99.90
24448;DHT22;13348;50.984;5.822;2023-02-16T08:03:01;8.00;99.90
24448;DHT22;13348;50.984;5.822;2023-02-16T08:05:28;8.00;99.90
24448;DHT22;13348;50.984;5.822;2023-02-16T08:07:55;8.00;99.90
24448;DHT22;13348;50.984;5.822;2023-02-16T08:10:22;8.10;99.90
24448;DHT22;13348;50.984;5.822;2023-02-16T08:12:49;8.10;99.90
24448;DHT22;13348;50.984;5.822;2023-02-16T08:15:16;8.40;99.90
24448;DHT22;13348;50.984;5.822;2023-02-16T08:17:44;8.40;99.90
24448;DHT22;13348;50.984;5.822;2023-02-16T08:20:12;8.60;99.90
24448;DHT22;13348;50.984;5.822;2023-02-16T08:22:39;8.60;99.90
24448;DHT22;13348;50.984;5.822;2023-02-16T08:25:06;8.60;99.90
24448;DHT22;13348;50.984;5.822;2023-02-16T08:27:33;8.70;99.90
24448;DHT22;13348;50.984;5.822;2023-02-16T08:30:01;8.70;99.90
24448;DHT22;13348;50.984;5.822;2023-02-16T08:32:28;8.70;99.90
24448;DHT22;13348;50.984;5.822;2023-02-16T08:34:56;8.70;99.90
24448;DHT22;13348;50.984;5.822;2023-02-16T08:37:23;8.70;99.90
24448;DHT22;13348;50.984;5.822;2023-02-16T08:39:50;8.60;99.90
24448;DHT22;13348;50.984;5.822;2023-02-16T08:42:18;8.70;99.90
24448;DHT22;13348;50.984;5.822;2023-02-16T08:44:45;8.70;99.90
24448;DHT22;13348;50.984;5.822;2023-02-16T08:47:12;8.70;99.90
24448;DHT22;13348;50.984;5.822;2023-02-16T08:49:41;8.80;99.90
24448;DHT22;13348;50.984;5.822;2023-02-16T08:52:10;8.80;99.90
24448;DHT22;13348;50.984;5.822;2023-02-16T08:54:37;8.80;99.90
24448;DHT22;13348;50.984;5.822;2023-02-16T08:57:04;8.80;99.90
24448;DHT22;13348;50.984;5.822;2023-02-16T08:59:31;8.90;99.90
24448;DHT22;13348;50.984;5.822;2023-02-16T09:01:59;9.00;99.90
24448;DHT22;13348;50.984;5.822;2023-02-16T09:04:26;9.00;99.90
24448;DHT22;13348;50.984;5.822;2023-02-16T09:06:53;9.10;99.90
24448;DHT22;13348;50.984;5.822;2023-02-16T09:09:22;9.20;99.90
24448;DHT22;13348;50.984;5.822;2023-02-16T09:11:50;9.20;99.90
24448;DHT22;13348;50.984;5.822;2023-02-16T09:14:17;9.20;99.90
24448;DHT22;13348;50.984;5.822;2023-02-16T09:16:45;9.20;99.90
24448;DHT22;13348;50.984;5.822;2023-02-16T09:19:13;9.30;99.90
24448;DHT22;13348;50.984;5.822;2023-02-16T09:21:40;9.30;99.90
24448;DHT22;13348;50.984;5.822;2023-02-16T09:24:07;9.30;99.90
24448;DHT22;13348;50.984;5.822;2023-02-16T09:26:37;9.40;99.90
24448;DHT22;13348;50.984;5.822;2023-02-16T09:29:07;9.40;99.90
24448;DHT22;13348;50.984;5.822;2023-02-16T09:31:34;9.40;99.90
24448;DHT22;13348;50.984;5.822;2023-02-16T09:34:02;9.30;99.90
24448;DHT22;13348;50.984;5.822;2023-02-16T09:36:30;9.20;99.90
24448;DHT22;13348;50.984;5.822;2023-02-16T09:38:58;9.10;99.90
24448;DHT22;13348;50.984;5.822;2023-02-16T09:41:31;9.00;99.90
24448;DHT22;13348;50.984;5.822;2023-02-16T09:44:01;9.00;99.90
24448;DHT22;13348;50.984;5.822;2023-02-16T09:46:29;9.00;99.90
24448;DHT22;13348;50.984;5.822;2023-02-16T09:48:56;9.00;99.90
24448;DHT22;13348;50.984;5.822;2023-02-16T09:51:24;9.00;99.90
24448;DHT22;13348;50.984;5.822;2023-02-16T09:53:54;8.90;99.90
24448;DHT22;13348;50.984;5.822;2023-02-16T09:56:24;8.90;99.90
24448;DHT22;13348;50.984;5.822;2023-02-16T09:58:54;8.90;99.90
24448;DHT22;13348;50.984;5.822;2023-02-16T10:01:25;8.90;99.90
24448;DHT22;13348;50.984;5.822;2023-02-16T10:03:59;8.90;99.90
24448;DHT22;13348;50.984;5.822;2023-02-16T10:06:29;8.90;99.90
24448;DHT22;13348;50.984;5.822;2023-02-16T10:09:01;8.90;99.90
24448;DHT22;13348;50.984;5.822;2023-02-16T10:11:29;8.90;99.90
24448;DHT22;13348;50.984;5.822;2023-02-16T10:14:07;8.90;99.90
24448;DHT22;13348;50.984;5.822;2023-02-16T10:16:39;8.80;99.90
24448;DHT22;13348;50.984;5.822;2023-02-16T10:19:10;8.70;99.90
24448;DHT22;13348;50.984;5.822;2023-02-16T10:21:40;8.70;99.90
24448;DHT22;13348;50.984;5.822;2023-02-16T10:24:10;8.70;99.90
24448;DHT22;13348;50.984;5.822;2023-02-16T10:26:39;8.70;99.90
24448;DHT22;13348;50.984;5.822;2023-02-16T10:29:10;8.80;99.90
24448;DHT22;13348;50.984;5.822;2023-02-16T10:31:41;9.00;99.90
24448;DHT22;13348;50.984;5.822;2023-02-16T10:34:16;9.10;99.90
24448;DHT22;13348;50.984;5.822;2023-02-16T10:39:26;9.40;99.90
24448;DHT22;13348;50.984;5.822;2023-02-16T10:41:57;9.40;99.90
24448;DHT22;13348;50.984;5.822;2023-02-16T10:44:28;9.40;99.90
24448;DHT22;13348;50.984;5.822;2023-02-16T10:46:58;9.50;99.90
24448;DHT22;13348;50.984;5.822;2023-02-16T10:49:26;9.50;99.90
24448;DHT22;13348;50.984;5.822;2023-02-16T10:51:55;9.50;99.90
24448;DHT22;13348;50.984;5.822;2023-02-16T10:54:23;9.40;99.90
24448;DHT22;13348;50.984;5.822;2023-02-16T10:56:52;9.40;99.90
24448;DHT22;13348;50.984;5.822;2023-02-16T10:59:24;9.50;99.90
24448;DHT22;13348;50.984;5.822;2023-02-16T11:01:52;9.50;99.90
24448;DHT22;13348;50.984;5.822;2023-02-16T11:04:37;9.70;99.90
24448;DHT22;13348;50.984;5.822;2023-02-16T11:07:05;9.70;99.90
24448;DHT22;13348;50.984;5.822;2023-02-16T11:09:33;9.80;99.90
24448;DHT22;13348;50.984;5.822;2023-02-16T11:12:00;9.90;99.90
24448;DHT22;13348;50.984;5.822;2023-02-16T11:14:28;9.90;99.90
24448;DHT22;13348;50.984;5.822;2023-02-16T11:17:03;10.00;99.90
24448;DHT22;13348;50.984;5.822;2023-02-16T11:19:30;10.00;99.90
24448;DHT22;13348;50.984;5.822;2023-02-16T11:21:59;10.00;99.90
24448;DHT22;13348;50.984;5.822;2023-02-16T11:24:27;9.90;99.90
24448;DHT22;13348;50.984;5.822;2023-02-16T11:26:58;10.00;99.90
24448;DHT22;13348;50.984;5.822;2023-02-16T11:29:25;10.10;99.90
24448;DHT22;13348;50.984;5.822;2023-02-16T11:31:52;10.10;99.90
24448;DHT22;13348;50.984;5.822;2023-02-16T11:34:23;10.10;99.90
24448;DHT22;13348;50.984;5.822;2023-02-16T11:36:53;10.00;99.90
24448;DHT22;13348;50.984;5.822;2023-02-16T11:39:28;9.90;99.90
24448;DHT22;13348;50.984;5.822;2023-02-16T11:41:58;9.80;99.90
24448;DHT22;13348;50.984;5.822;2023-02-16T11:44:27;9.70;99.90
24448;DHT22;13348;50.984;5.822;2023-02-16T11:46:55;9.70;99.90
24448;DHT22;13348;50.984;5.822;2023-02-16T11:49:28;9.70;99.90
24448;DHT22;13348;50.984;5.822;2023-02-16T11:51:56;9.70;99.90
24448;DHT22;13348;50.984;5.822;2023-02-16T11:54:23;9.70;99.90
24448;DHT22;13348;50.984;5.822;2023-02-16T11:57:03;9.70;99.90
24448;DHT22;13348;50.984;5.822;2023-02-16T11:59:31;9.90;99.90
24448;DHT22;13348;50.984;5.822;2023-02-16T12:02:05;9.90;99.90
24448;DHT22;13348;50.984;5.822;2023-02-16T12:04:40;9.80;99.90
24448;DHT22;13348;50.984;5.822;2023-02-16T12:07:11;9.80;99.90
24448;DHT22;13348;50.984;5.822;2023-02-16T12:09:46;9.80;99.90
24448;DHT22;13348;50.984;5.822;2023-02-16T12:12:17;9.80;99.90
24448;DHT22;13348;50.984;5.822;2023-02-16T12:14:49;10.00;99.90
24448;DHT22;13348;50.984;5.822;2023-02-16T12:17:25;10.30;99.90
24448;DHT22;13348;50.984;5.822;2023-02-16T12:19:55;10.40;99.90
24448;DHT22;13348;50.984;5.822;2023-02-16T12:22:27;10.60;99.90
24448;DHT22;13348;50.984;5.822;2023-02-16T12:25:00;10.70;99.90
24448;DHT22;13348;50.984;5.822;2023-02-16T12:27:32;10.80;99.90
24448;DHT22;13348;50.984;5.822;2023-02-16T12:30:02;10.70;99.90
24448;DHT22;13348;50.984;5.822;2023-02-16T12:32:46;10.60;99.90
24448;DHT22;13348;50.984;5.822;2023-02-16T12:35:18;10.70;99.90
24448;DHT22;13348;50.984;5.822;2023-02-16T12:37:50;10.70;99.90
24448;DHT22;13348;50.984;5.822;2023-02-16T12:40:22;10.70;99.90
24448;DHT22;13348;50.984;5.822;2023-02-16T12:43:00;10.70;99.90
24448;DHT22;13348;50.984;5.822;2023-02-16T12:45:31;10.80;99.90
24448;DHT22;13348;50.984;5.822;2023-02-16T12:47:59;10.90;99.90
24448;DHT22;13348;50.984;5.822;2023-02-16T12:50:27;10.90;99.90
24448;DHT22;13348;50.984;5.822;2023-02-16T12:52:56;10.90;99.90
24448;DHT22;13348;50.984;5.822;2023-02-16T12:55:26;11.10;99.90
24448;DHT22;13348;50.984;5.822;2023-02-16T12:57:56;11.20;99.90
24448;DHT22;13348;50.984;5.822;2023-02-16T13:00:29;11.20;99.90
24448;DHT22;13348;50.984;5.822;2023-02-16T13:03:02;11.20;99.90
24448;DHT22;13348;50.984;5.822;2023-02-16T13:05:34;11.10;99.90
24448;DHT22;13348;50.984;5.822;2023-02-16T13:08:06;11.00;99.90
24448;DHT22;13348;50.984;5.822;2023-02-16T13:10:39;10.90;99.90
24448;DHT22;13348;50.984;5.822;2023-02-16T13:13:11;11.00;99.90
24448;DHT22;13348;50.984;5.822;2023-02-16T13:15:43;11.10;99.90
24448;DHT22;13348;50.984;5.822;2023-02-16T13:18:15;11.30;99.90
24448;DHT22;13348;50.984;5.822;2023-02-16T13:20:49;11.40;99.90
24448;DHT22;13348;50.984;5.822;2023-02-16T13:23:26;11.80;99.90
24448;DHT22;13348;50.984;5.822;2023-02-16T13:28:54;12.50;99.90
24448;DHT22;13348;50.984;5.822;2023-02-16T13:31:28;12.20;99.90
24448;DHT22;13348;50.984;5.822;2023-02-16T13:34:02;12.20;99.90
24448;DHT22;13348;50.984;5.822;2023-02-16T13:36:41;12.30;99.90
24448;DHT22;13348;50.984;5.822;2023-02-16T13:39:19;12.60;99.90
24448;DHT22;13348;50.984;5.822;2023-02-16T13:41:52;12.80;99.90
24448;DHT22;13348;50.984;5.822;2023-02-16T13:44:21;13.40;99.90
24448;DHT22;13348;50.984;5.822;2023-02-16T13:46:50;13.70;99.90
24448;DHT22;13348;50.984;5.822;2023-02-16T13:49:28;14.00;99.90
24448;DHT22;13348;50.984;5.822;2023-02-16T13:51:56;14.10;99.90
24448;DHT22;13348;50.984;5.822;2023-02-16T13:54:26;14.30;99.90
24448;DHT22;13348;50.984;5.822;2023-02-16T13:56:55;13.70;99.90
24448;DHT22;13348;50.984;5.822;2023-02-16T14:02:15;13.40;99.90
24448;DHT22;13348;50.984;5.822;2023-02-16T14:05:02;13.30;99.90
24448;DHT22;13348;50.984;5.822;2023-02-16T14:07:30;13.60;99.90
24448;DHT22;13348;50.984;5.822;2023-02-16T14:09:57;13.60;99.90
24448;DHT22;13348;50.984;5.822;2023-02-16T14:12:25;13.40;99.90
24448;DHT22;13348;50.984;5.822;2023-02-16T14:14:58;13.00;99.90
24448;DHT22;13348;50.984;5.822;2023-02-16T14:17:27;12.70;99.90
24448;DHT22;13348;50.984;5.822;2023-02-16T14:19:56;12.80;99.90
24448;DHT22;13348;50.984;5.822;2023-02-16T14:22:26;13.20;99.90
24448;DHT22;13348;50.984;5.822;2023-02-16T14:24:56;13.30;99.90
24448;DHT22;13348;50.984;5.822;2023-02-16T14:27:41;13.00;99.90
24448;DHT22;13348;50.984;5.822;2023-02-16T14:30:13;12.80;99.90
24448;DHT22;13348;50.984;5.822;2023-02-16T14:32:44;12.90;99.90
24448;DHT22;13348;50.984;5.822;2023-02-16T14:35:14;13.00;99.90
24448;DHT22;13348;50.984;5.822;2023-02-16T14:37:43;12.90;99.90
24448;DHT22;13348;50.984;5.822;2023-02-16T14:40:18;12.80;99.90
24448;DHT22;13348;50.984;5.822;2023-02-16T14:42:55;12.90;99.90
24448;DHT22;13348;50.984;5.822;2023-02-16T14:48:36;13.30;99.90
24448;DHT22;13348;50.984;5.822;2023-02-16T14:51:18;13.50;99.90
24448;DHT22;13348;50.984;5.822;2023-02-16T14:54:01;13.70;99.90
24448;DHT22;13348;50.984;5.822;2023-02-16T14:56:39;13.40;99.90
24448;DHT22;13348;50.984;5.822;2023-02-16T14:59:10;13.30;99.90
24448;DHT22;13348;50.984;5.822;2023-02-16T15:01:39;13.30;99.90
24448;DHT22;13348;50.984;5.822;2023-02-16T15:04:08;13.30;99.90
24448;DHT22;13348;50.984;5.822;2023-02-16T15:06:37;13.10;99.90
24448;DHT22;13348;50.984;5.822;2023-02-16T15:09:05;13.00;99.90
24448;DHT22;13348;50.984;5.822;2023-02-16T15:11:39;12.70;99.90
24448;DHT22;13348;50.984;5.822;2023-02-16T15:14:22;12.50;99.90
24448;DHT22;13348;50.984;5.822;2023-02-16T15:16:51;12.50;99.90
24448;DHT22;13348;50.984;5.822;2023-02-16T15:19:22;12.40;99.90
24448;DHT22;13348;50.984;5.822;2023-02-16T15:22:06;12.40;99.90
24448;DHT22;13348;50.984;5.822;2023-02-16T15:24:32;12.50;99.90
24448;DHT22;13348;50.984;5.822;2023-02-16T15:27:00;12.60;99.90
24448;DHT22;13348;50.984;5.822;2023-02-16T15:29:27;12.60;99.90
24448;DHT22;13348;50.984;5.822;2023-02-16T15:31:54;12.70;99.90
24448;DHT22;13348;50.984;5.822;2023-02-16T15:34:27;12.50;99.90
24448;DHT22;13348;50.984;5.822;2023-02-16T15:36:54;12.40;99.90
24448;DHT22;13348;50.984;5.822;2023-02-16T15:39:25;12.40;99.90
24448;DHT22;13348;50.984;5.822;2023-02-16T15:41:53;12.50;99.90
24448;DHT22;13348;50.984;5.822;2023-02-16T15:44:26;12.50;99.90
24448;DHT22;13348;50.984;5.822;2023-02-16T15:47:04;12.60;99.90
24448;DHT22;13348;50.984;5.822;2023-02-16T15:49:33;12.60;99.90
24448;DHT22;13348;50.984;5.822;2023-02-16T15:52:04;12.50;99.90
24448;DHT22;13348;50.984;5.822;2023-02-16T15:54:35;12.40;99.90
24448;DHT22;13348;50.984;5.822;2023-02-16T15:57:03;12.40;99.90
24448;DHT22;13348;50.984;5.822;2023-02-16T15:59:31;12.40;99.90
24448;DHT22;13348;50.984;5.822;2023-02-16T16:02:00;12.30;99.90
24448;DHT22;13348;50.984;5.822;2023-02-16T16:04:28;12.20;99.90
24448;DHT22;13348;50.984;5.822;2023-02-16T16:06:57;12.20;99.90
24448;DHT22;13348;50.984;5.822;2023-02-16T16:09:26;12.30;99.90
24448;DHT22;13348;50.984;5.822;2023-02-16T16:11:54;12.20;99.90
24448;DHT22;13348;50.984;5.822;2023-02-16T16:14:22;12.20;99.90
24448;DHT22;13348;50.984;5.822;2023-02-16T16:16:49;12.10;99.90
24448;DHT22;13348;50.984;5.822;2023-02-16T16:19:17;12.00;99.90
24448;DHT22;13348;50.984;5.822;2023-02-16T16:21:45;11.90;99.90